sensor_id;sensor_type;location;lat;lon;timestamp;P1;durP1;ratioP1;P2;durP2;ratioP2
3627;SDS011;1830;49.000;12.074;2022-10-31T00:00:58;33.37;;;13.50;;
3627;SDS011;1830;49.000;12.074;2022-10-31T00:03:26;39.90;;;14.80;;
3627;SDS011;1830;49.000;12.074;2022-10-31T00:05:53;21.60;;;14.70;;
3627;SDS011;1830;49.000;12.074;2022-10-31T00:08:20;33.93;;;14.60;;
3627;SDS011;1830;49.000;12.074;2022-10-31T00:10:46;27.23;;;14.30;;
3627;SDS011;1830;49.000;12.074;2022-10-31T00:13:14;27.23;;;14.70;;
3627;SDS011;1830;49.000;12.074;2022-10-31T00:15:41;25.30;;;14.37;;
3627;SDS011;1830;49.000;12.074;2022-10-31T00:18:09;27.13;;;16.20;;
3627;SDS011;1830;49.000;12.074;2022-10-31T00:20:36;27.57;;;14.70;;
3627;SDS011;1830;49.000;12.074;2022-10-31T00:23:04;30.17;;;14.63;;
3627;SDS011;1830;49.000;12.074;2022-10-31T00:25:33;21.20;;;13.03;;
3627;SDS011;1830;49.000;12.074;2022-10-31T00:28:01;30.67;;;15.13;;
3627;SDS011;1830;49.000;12.074;2022-10-31T00:30:28;28.33;;;13.53;;
3627;SDS011;1830;49.000;12.074;2022-10-31T00:32:55;23.03;;;13.60;;
3627;SDS011;1830;49.000;12.074;2022-10-31T00:35:23;33.37;;;13.73;;
3627;SDS011;1830;49.000;12.074;2022-10-31T00:37:51;25.47;;;13.60;;
3627;SDS011;1830;49.000;12.074;2022-10-31T00:40:18;34.20;;;13.77;;
3627;SDS011;1830;49.000;12.074;2022-10-31T00:42:45;32.03;;;13.10;;
3627;SDS011;1830;49.000;12.074;2022-10-31T00:45:13;26.93;;;14.27;;
3627;SDS011;1830;49.000;12.074;2022-10-31T00:47:40;30.47;;;14.70;;
3627;SDS011;1830;49.000;12.074;2022-10-31T00:50:10;27.73;;;13.40;;
3627;SDS011;1830;49.000;12.074;2022-10-31T00:52:39;26.30;;;13.10;;
3627;SDS011;1830;49.000;12.074;2022-10-31T00:55:16;23.87;;;13.60;;
3627;SDS011;1830;49.000;12.074;2022-10-31T00:57:45;29.57;;;13.77;;
3627;SDS011;1830;49.000;12.074;2022-10-31T01:00:12;30.03;;;13.80;;
3627;SDS011;1830;49.000;12.074;2022-10-31T01:02:40;22.40;;;13.63;;
3627;SDS011;1830;49.000;12.074;2022-10-31T01:05:07;31.80;;;13.70;;
3627;SDS011;1830;49.000;12.074;2022-10-31T01:07:36;27.30;;;14.03;;
3627;SDS011;1830;49.000;12.074;2022-10-31T01:10:05;24.40;;;13.70;;
3627;SDS011;1830;49.000;12.074;2022-10-31T01:12:35;26.37;;;13.70;;
3627;SDS011;1830;49.000;12.074;2022-10-31T01:15:02;24.60;;;14.47;;
3627;SDS011;1830;49.000;12.074;2022-10-31T01:17:30;28.47;;;14.20;;
3627;SDS011;1830;49.000;12.074;2022-10-31T01:19:57;28.00;;;14.70;;
3627;SDS011;1830;49.000;12.074;2022-10-31T01:22:24;31.17;;;13.90;;
3627;SDS011;1830;49.000;12.074;2022-10-31T01:24:54;23.63;;;14.00;;
3627;SDS011;1830;49.000;12.074;2022-10-31T01:27:22;29.97;;;13.80;;
3627;SDS011;1830;49.000;12.074;2022-10-31T01:29:49;20.10;;;13.67;;
3627;SDS011;1830;49.000;12.074;2022-10-31T01:32:16;25.53;;;13.90;;
3627;SDS011;1830;49.000;12.074;2022-10-31T01:34:43;24.87;;;13.60;;
3627;SDS011;1830;49.000;12.074;2022-10-31T01:37:10;22.37;;;14.47;;
3627;SDS011;1830;49.000;12.074;2022-10-31T01:39:37;27.27;;;14.23;;
3627;SDS011;1830;49.000;12.074;2022-10-31T01:42:05;23.10;;;14.10;;
3627;SDS011;1830;49.000;12.074;2022-10-31T01:47:29;26.77;;;15.37;;
3627;SDS011;1830;49.000;12.074;2022-10-31T01:50:10;20.97;;;14.67;;
3627;SDS011;1830;49.000;12.074;2022-10-31T01:52:53;24.50;;;13.33;;
3627;SDS011;1830;49.000;12.074;2022-10-31T01:55:22;22.53;;;12.67;;
3627;SDS011;1830;49.000;12.074;2022-10-31T01:57:52;31.73;;;14.80;;
3627;SDS011;1830;49.000;12.074;2022-10-31T02:00:25;22.50;;;13.60;;
3627;SDS011;1830;49.000;12.074;2022-10-31T02:02:52;23.83;;;15.63;;
3627;SDS011;1830;49.000;12.074;2022-10-31T02:05:21;22.87;;;14.60;;
3627;SDS011;1830;49.000;12.074;2022-10-31T02:07:52;18.60;;;13.37;;
3627;SDS011;1830;49.000;12.074;2022-10-31T02:10:22;18.03;;;12.60;;
3627;SDS011;1830;49.000;12.074;2022-10-31T02:12:50;18.90;;;13.10;;
3627;SDS011;1830;49.000;12.074;2022-10-31T02:15:20;44.47;;;14.30;;
3627;SDS011;1830;49.000;12.074;2022-10-31T02:17:48;31.10;;;14.47;;
3627;SDS011;1830;49.000;12.074;2022-10-31T02:20:16;22.87;;;13.93;;
3627;SDS011;1830;49.000;12.074;2022-10-31T02:25:56;21.60;;;12.80;;
3627;SDS011;1830;49.000;12.074;2022-10-31T02:29:05;24.73;;;13.30;;
3627;SDS011;1830;49.000;12.074;2022-10-31T02:31:55;20.57;;;12.87;;
3627;SDS011;1830;49.000;12.074;2022-10-31T02:34:29;35.93;;;14.20;;
3627;SDS011;1830;49.000;12.074;2022-10-31T02:37:06;26.00;;;14.30;;
3627;SDS011;1830;49.000;12.074;2022-10-31T02:39:41;22.70;;;12.83;;
3627;SDS011;1830;49.000;12.074;2022-10-31T02:42:16;24.90;;;12.63;;
3627;SDS011;1830;49.000;12.074;2022-10-31T02:44:51;24.43;;;13.73;;
3627;SDS011;1830;49.000;12.074;2022-10-31T02:47:23;22.00;;;13.17;;
3627;SDS011;1830;49.000;12.074;2022-10-31T02:49:55;28.10;;;13.50;;
3627;SDS011;1830;49.000;12.074;2022-10-31T02:58:20;37.73;;;16.67;;
3627;SDS011;1830;49.000;12.074;2022-10-31T03:00:55;38.27;;;13.70;;
3627;SDS011;1830;49.000;12.074;2022-10-31T03:03:42;76.63;;;16.73;;
3627;SDS011;1830;49.000;12.074;2022-10-31T03:06:24;85.60;;;14.77;;
3627;SDS011;1830;49.000;12.074;2022-10-31T03:08:59;84.80;;;15.93;;
3627;SDS011;1830;49.000;12.074;2022-10-31T03:11:32;48.13;;;16.00;;
3627;SDS011;1830;49.000;12.074;2022-10-31T03:14:09;102.27;;;16.37;;
3627;SDS011;1830;49.000;12.074;2022-10-31T03:16:40;68.00;;;16.13;;
3627;SDS011;1830;49.000;12.074;2022-10-31T03:19:14;78.53;;;15.60;;
3627;SDS011;1830;49.000;12.074;2022-10-31T03:21:44;98.07;;;16.37;;
3627;SDS011;1830;49.000;12.074;2022-10-31T03:24:13;100.83;;;16.60;;
3627;SDS011;1830;49.000;12.074;2022-10-31T03:26:42;76.73;;;16.77;;
3627;SDS011;1830;49.000;12.074;2022-10-31T03:29:13;106.50;;;16.70;;
3627;SDS011;1830;49.000;12.074;2022-10-31T03:31:44;87.47;;;17.27;;
3627;SDS011;1830;49.000;12.074;2022-10-31T03:34:16;134.70;;;17.20;;
3627;SDS011;1830;49.000;12.074;2022-10-31T03:36:45;156.87;;;17.70;;
3627;SDS011;1830;49.000;12.074;2022-10-31T03:39:15;131.77;;;17.10;;
3627;SDS011;1830;49.000;12.074;2022-10-31T03:41:48;148.27;;;17.43;;
3627;SDS011;1830;49.000;12.074;2022-10-31T03:44:19;94.17;;;15.93;;
3627;SDS011;1830;49.000;12.074;2022-10-31T03:46:48;96.77;;;16.30;;
3627;SDS011;1830;49.000;12.074;2022-10-31T03:49:17;47.43;;;16.30;;
3627;SDS011;1830;49.000;12.074;2022-10-31T03:51:45;85.93;;;15.90;;
3627;SDS011;1830;49.000;12.074;2022-10-31T03:54:20;62.53;;;13.73;;
3627;SDS011;1830;49.000;12.074;2022-10-31T03:56:52;35.17;;;14.00;;
3627;SDS011;1830;49.000;12.074;2022-10-31T03:59:23;58.27;;;15.60;;
3627;SDS011;1830;49.000;12.074;2022-10-31T04:01:54;48.27;;;13.53;;
3627;SDS011;1830;49.000;12.074;2022-10-31T04:04:26;60.43;;;14.73;;
3627;SDS011;1830;49.000;12.074;2022-10-31T04:06:55;58.57;;;14.97;;
3627;SDS011;1830;49.000;12.074;2022-10-31T04:09:24;34.43;;;12.07;;
3627;SDS011;1830;49.000;12.074;2022-10-31T04:11:53;89.87;;;13.47;;
3627;SDS011;1830;49.000;12.074;2022-10-31T04:14:35;86.23;;;14.10;;
3627;SDS011;1830;49.000;12.074;2022-10-31T04:17:05;114.10;;;14.20;;
3627;SDS011;1830;49.000;12.074;2022-10-31T04:19:38;171.23;;;15.37;;
3627;SDS011;1830;49.000;12.074;2022-10-31T04:22:05;87.07;;;14.47;;
3627;SDS011;1830;49.000;12.074;2022-10-31T04:24:32;105.03;;;14.60;;
3627;SDS011;1830;49.000;12.074;2022-10-31T04:27:01;59.43;;;13.90;;
3627;SDS011;1830;49.000;12.074;2022-10-31T04:29:28;85.93;;;13.10;;
3627;SDS011;1830;49.000;12.074;2022-10-31T04:31:57;78.17;;;12.97;;
3627;SDS011;1830;49.000;12.074;2022-10-31T04:34:24;80.60;;;14.10;;
3627;SDS011;1830;49.000;12.074;2022-10-31T04:37:01;93.13;;;14.30;;
3627;SDS011;1830;49.000;12.074;2022-10-31T04:39:43;63.93;;;13.73;;
3627;SDS011;1830;49.000;12.074;2022-10-31T04:42:13;134.57;;;17.00;;
3627;SDS011;1830;49.000;12.074;2022-10-31T04:44:40;82.90;;;19.53;;
3627;SDS011;1830;49.000;12.074;2022-10-31T04:47:07;40.67;;;16.63;;
3627;SDS011;1830;49.000;12.074;2022-10-31T04:49:34;118.40;;;15.53;;
3627;SDS011;1830;49.000;12.074;2022-10-31T04:52:08;100.07;;;14.90;;
3627;SDS011;1830;49.000;12.074;2022-10-31T04:54:44;78.20;;;14.43;;
3627;SDS011;1830;49.000;12.074;2022-10-31T04:57:17;91.73;;;15.67;;
3627;SDS011;1830;49.000;12.074;2022-10-31T04:59:44;159.80;;;15.70;;
3627;SDS011;1830;49.000;12.074;2022-10-31T05:15:57;279.33;;;17.90;;
3627;SDS011;1830;49.000;12.074;2022-10-31T05:18:56;167.17;;;14.47;;
3627;SDS011;1830;49.000;12.074;2022-10-31T05:21:35;145.80;;;15.80;;
3627;SDS011;1830;49.000;12.074;2022-10-31T05:24:45;103.73;;;15.57;;
3627;SDS011;1830;49.000;12.074;2022-10-31T05:27:27;169.03;;;16.60;;
3627;SDS011;1830;49.000;12.074;2022-10-31T05:29:54;103.33;;;15.20;;
3627;SDS011;1830;49.000;12.074;2022-10-31T05:32:23;158.50;;;15.70;;
3627;SDS011;1830;49.000;12.074;2022-10-31T05:34:50;304.93;;;17.17;;
3627;SDS011;1830;49.000;12.074;2022-10-31T05:37:30;190.27;;;15.90;;
3627;SDS011;1830;49.000;12.074;2022-10-31T05:39:57;248.07;;;14.80;;
3627;SDS011;1830;49.000;12.074;2022-10-31T05:42:24;359.57;;;17.47;;
3627;SDS011;1830;49.000;12.074;2022-10-31T05:44:54;403.03;;;16.63;;
3627;SDS011;1830;49.000;12.074;2022-10-31T05:47:22;390.33;;;17.70;;
3627;SDS011;1830;49.000;12.074;2022-10-31T05:49:50;232.83;;;15.30;;
3627;SDS011;1830;49.000;12.074;2022-10-31T05:52:17;401.97;;;17.37;;
3627;SDS011;1830;49.000;12.074;2022-10-31T05:54:44;249.77;;;13.13;;
3627;SDS011;1830;49.000;12.074;2022-10-31T05:57:11;255.67;;;14.20;;
3627;SDS011;1830;49.000;12.074;2022-10-31T05:59:38;165.70;;;12.37;;
3627;SDS011;1830;49.000;12.074;2022-10-31T06:02:04;161.73;;;12.33;;
3627;SDS011;1830;49.000;12.074;2022-10-31T06:04:33;142.80;;;10.70;;
3627;SDS011;1830;49.000;12.074;2022-10-31T06:07:00;175.63;;;12.40;;
3627;SDS011;1830;49.000;12.074;2022-10-31T06:09:36;178.13;;;13.07;;
3627;SDS011;1830;49.000;12.074;2022-10-31T06:12:03;132.87;;;12.17;;
3627;SDS011;1830;49.000;12.074;2022-10-31T06:14:30;62.50;;;10.50;;
3627;SDS011;1830;49.000;12.074;2022-10-31T06:16:57;116.23;;;11.90;;
3627;SDS011;1830;49.000;12.074;2022-10-31T06:19:24;174.17;;;11.60;;
3627;SDS011;1830;49.000;12.074;2022-10-31T06:21:52;142.17;;;10.60;;
3627;SDS011;1830;49.000;12.074;2022-10-31T06:24:19;189.37;;;11.97;;
3627;SDS011;1830;49.000;12.074;2022-10-31T06:26:46;124.00;;;11.00;;
3627;SDS011;1830;49.000;12.074;2022-10-31T06:29:13;177.00;;;12.57;;
3627;SDS011;1830;49.000;12.074;2022-10-31T06:31:40;83.90;;;9.50;;
3627;SDS011;1830;49.000;12.074;2022-10-31T06:34:07;158.87;;;12.07;;
3627;SDS011;1830;49.000;12.074;2022-10-31T06:36:46;239.23;;;12.83;;
3627;SDS011;1830;49.000;12.074;2022-10-31T06:39:14;256.70;;;13.00;;
3627;SDS011;1830;49.000;12.074;2022-10-31T06:41:41;110.07;;;11.40;;
3627;SDS011;1830;49.000;12.074;2022-10-31T06:44:08;118.83;;;10.90;;
3627;SDS011;1830;49.000;12.074;2022-10-31T06:46:47;119.37;;;10.73;;
3627;SDS011;1830;49.000;12.074;2022-10-31T06:49:14;96.20;;;13.23;;
3627;SDS011;1830;49.000;12.074;2022-10-31T06:51:41;107.93;;;10.43;;
3627;SDS011;1830;49.000;12.074;2022-10-31T06:54:08;95.43;;;11.03;;
3627;SDS011;1830;49.000;12.074;2022-10-31T06:56:37;92.97;;;11.50;;
3627;SDS011;1830;49.000;12.074;2022-10-31T06:59:04;92.33;;;11.20;;
3627;SDS011;1830;49.000;12.074;2022-10-31T07:01:31;115.27;;;12.07;;
3627;SDS011;1830;49.000;12.074;2022-10-31T07:03:58;110.23;;;12.03;;
3627;SDS011;1830;49.000;12.074;2022-10-31T07:06:25;55.63;;;11.57;;
3627;SDS011;1830;49.000;12.074;2022-10-31T07:08:52;73.97;;;12.30;;
3627;SDS011;1830;49.000;12.074;2022-10-31T07:11:19;71.87;;;12.00;;
3627;SDS011;1830;49.000;12.074;2022-10-31T07:13:47;148.40;;;12.67;;
3627;SDS011;1830;49.000;12.074;2022-10-31T07:16:14;64.30;;;12.13;;
3627;SDS011;1830;49.000;12.074;2022-10-31T07:18:41;104.77;;;12.77;;
3627;SDS011;1830;49.000;12.074;2022-10-31T07:21:08;57.00;;;10.37;;
3627;SDS011;1830;49.000;12.074;2022-10-31T07:23:35;113.17;;;12.70;;
3627;SDS011;1830;49.000;12.074;2022-10-31T07:26:02;85.17;;;11.80;;
3627;SDS011;1830;49.000;12.074;2022-10-31T07:28:29;83.70;;;11.57;;
3627;SDS011;1830;49.000;12.074;2022-10-31T07:30:57;77.87;;;11.40;;
3627;SDS011;1830;49.000;12.074;2022-10-31T07:33:24;86.30;;;10.80;;
3627;SDS011;1830;49.000;12.074;2022-10-31T07:35:52;40.73;;;9.87;;
3627;SDS011;1830;49.000;12.074;2022-10-31T07:38:19;52.90;;;9.30;;
3627;SDS011;1830;49.000;12.074;2022-10-31T07:40:49;110.03;;;11.57;;
3627;SDS011;1830;49.000;12.074;2022-10-31T07:43:18;72.53;;;11.27;;
3627;SDS011;1830;49.000;12.074;2022-10-31T07:45:48;76.47;;;10.43;;
3627;SDS011;1830;49.000;12.074;2022-10-31T07:48:18;73.07;;;11.23;;
3627;SDS011;1830;49.000;12.074;2022-10-31T07:50:45;49.37;;;10.50;;
3627;SDS011;1830;49.000;12.074;2022-10-31T07:53:13;37.87;;;12.20;;
3627;SDS011;1830;49.000;12.074;2022-10-31T07:55:42;56.50;;;10.93;;
3627;SDS011;1830;49.000;12.074;2022-10-31T07:58:25;42.10;;;12.90;;
3627;SDS011;1830;49.000;12.074;2022-10-31T08:00:57;29.23;;;12.43;;
3627;SDS011;1830;49.000;12.074;2022-10-31T08:03:25;20.37;;;11.40;;
3627;SDS011;1830;49.000;12.074;2022-10-31T08:05:52;36.57;;;12.17;;
3627;SDS011;1830;49.000;12.074;2022-10-31T08:08:19;31.53;;;11.87;;
3627;SDS011;1830;49.000;12.074;2022-10-31T08:10:48;21.60;;;11.20;;
3627;SDS011;1830;49.000;12.074;2022-10-31T08:13:15;19.53;;;11.67;;
3627;SDS011;1830;49.000;12.074;2022-10-31T08:15:42;31.80;;;12.53;;
3627;SDS011;1830;49.000;12.074;2022-10-31T08:18:15;23.93;;;12.17;;
3627;SDS011;1830;49.000;12.074;2022-10-31T08:20:48;48.57;;;13.60;;
3627;SDS011;1830;49.000;12.074;2022-10-31T08:23:39;28.30;;;13.63;;
3627;SDS011;1830;49.000;12.074;2022-10-31T08:26:11;31.43;;;13.57;;
3627;SDS011;1830;49.000;12.074;2022-10-31T08:28:38;32.63;;;12.33;;
3627;SDS011;1830;49.000;12.074;2022-10-31T08:31:11;29.77;;;12.50;;
3627;SDS011;1830;49.000;12.074;2022-10-31T08:33:38;17.47;;;12.40;;
3627;SDS011;1830;49.000;12.074;2022-10-31T08:36:07;41.87;;;13.03;;
3627;SDS011;1830;49.000;12.074;2022-10-31T08:38:34;110.07;;;13.50;;
3627;SDS011;1830;49.000;12.074;2022-10-31T08:41:01;138.20;;;14.50;;
3627;SDS011;1830;49.000;12.074;2022-10-31T08:43:28;132.63;;;15.10;;
3627;SDS011;1830;49.000;12.074;2022-10-31T08:45:55;153.93;;;16.50;;
3627;SDS011;1830;49.000;12.074;2022-10-31T08:48:31;156.80;;;16.53;;
3627;SDS011;1830;49.000;12.074;2022-10-31T08:50:58;161.33;;;16.40;;
3627;SDS011;1830;49.000;12.074;2022-10-31T08:53:27;156.53;;;16.50;;
3627;SDS011;1830;49.000;12.074;2022-10-31T08:55:55;86.40;;;16.60;;
3627;SDS011;1830;49.000;12.074;2022-10-31T08:58:22;24.60;;;14.03;;
3627;SDS011;1830;49.000;12.074;2022-10-31T09:00:51;44.87;;;15.23;;
3627;SDS011;1830;49.000;12.074;2022-10-31T09:03:20;43.97;;;15.90;;
3627;SDS011;1830;49.000;12.074;2022-10-31T09:05:48;90.67;;;15.80;;
3627;SDS011;1830;49.000;12.074;2022-10-31T09:08:16;29.90;;;16.27;;
3627;SDS011;1830;49.000;12.074;2022-10-31T09:10:44;26.90;;;16.67;;
3627;SDS011;1830;49.000;12.074;2022-10-31T09:13:12;54.67;;;18.87;;
3627;SDS011;1830;49.000;12.074;2022-10-31T09:15:41;51.97;;;18.23;;
3627;SDS011;1830;49.000;12.074;2022-10-31T09:18:10;106.10;;;19.30;;
3627;SDS011;1830;49.000;12.074;2022-10-31T09:20:41;65.03;;;17.50;;
3627;SDS011;1830;49.000;12.074;2022-10-31T09:23:14;85.93;;;17.13;;
3627;SDS011;1830;49.000;12.074;2022-10-31T09:25:42;246.93;;;21.53;;
3627;SDS011;1830;49.000;12.074;2022-10-31T09:28:12;120.90;;;16.70;;
3627;SDS011;1830;49.000;12.074;2022-10-31T09:30:45;82.50;;;19.13;;
3627;SDS011;1830;49.000;12.074;2022-10-31T09:33:13;121.97;;;20.20;;
3627;SDS011;1830;49.000;12.074;2022-10-31T09:35:43;109.37;;;17.80;;
3627;SDS011;1830;49.000;12.074;2022-10-31T09:38:11;32.57;;;18.53;;
3627;SDS011;1830;49.000;12.074;2022-10-31T09:40:42;93.03;;;18.77;;
3627;SDS011;1830;49.000;12.074;2022-10-31T09:49:49;147.23;;;18.60;;
3627;SDS011;1830;49.000;12.074;2022-10-31T09:52:32;66.90;;;18.87;;
3627;SDS011;1830;49.000;12.074;2022-10-31T09:57:27;53.97;;;19.53;;
3627;SDS011;1830;49.000;12.074;2022-10-31T09:58:30;200.87;;;20.57;;
3627;SDS011;1830;49.000;12.074;2022-10-31T10:01:09;53.50;;;19.57;;
3627;SDS011;1830;49.000;12.074;2022-10-31T10:04:04;66.13;;;19.13;;
3627;SDS011;1830;49.000;12.074;2022-10-31T10:06:40;34.93;;;19.17;;
3627;SDS011;1830;49.000;12.074;2022-10-31T10:09:14;30.60;;;19.07;;
3627;SDS011;1830;49.000;12.074;2022-10-31T10:12:29;27.63;;;19.50;;
3627;SDS011;1830;49.000;12.074;2022-10-31T10:19:07;64.73;;;22.20;;
3627;SDS011;1830;49.000;12.074;2022-10-31T10:22:00;39.03;;;23.33;;
3627;SDS011;1830;49.000;12.074;2022-10-31T10:24:59;35.60;;;21.47;;
3627;SDS011;1830;49.000;12.074;2022-10-31T10:34:37;33.63;;;22.30;;
3627;SDS011;1830;49.000;12.074;2022-10-31T11:16:15;47.87;;;29.37;;
3627;SDS011;1830;49.000;12.074;2022-10-31T11:19:07;49.83;;;31.20;;
3627;SDS011;1830;49.000;12.074;2022-10-31T11:21:41;47.53;;;32.10;;
3627;SDS011;1830;49.000;12.074;2022-10-31T11:24:24;53.83;;;30.20;;
3627;SDS011;1830;49.000;12.074;2022-10-31T11:27:27;51.40;;;30.83;;
3627;SDS011;1830;49.000;12.074;2022-10-31T11:30:18;43.63;;;30.30;;
3627;SDS011;1830;49.000;12.074;2022-10-31T11:33:11;46.40;;;29.27;;
3627;SDS011;1830;49.000;12.074;2022-10-31T11:35:46;53.67;;;31.53;;
3627;SDS011;1830;49.000;12.074;2022-10-31T11:38:24;52.27;;;33.10;;
3627;SDS011;1830;49.000;12.074;2022-10-31T11:40:57;52.40;;;32.83;;
3627;SDS011;1830;49.000;12.074;2022-10-31T11:43:29;50.87;;;31.73;;
3627;SDS011;1830;49.000;12.074;2022-10-31T11:45:57;61.17;;;35.70;;
3627;SDS011;1830;49.000;12.074;2022-10-31T11:48:34;54.80;;;33.77;;
3627;SDS011;1830;49.000;12.074;2022-10-31T11:51:04;46.23;;;31.00;;
3627;SDS011;1830;49.000;12.074;2022-10-31T11:53:32;46.60;;;31.47;;
3627;SDS011;1830;49.000;12.074;2022-10-31T11:56:02;54.70;;;32.53;;
3627;SDS011;1830;49.000;12.074;2022-10-31T11:58:31;55.03;;;36.07;;
3627;SDS011;1830;49.000;12.074;2022-10-31T12:01:00;55.10;;;34.63;;
3627;SDS011;1830;49.000;12.074;2022-10-31T12:03:35;50.47;;;34.03;;
3627;SDS011;1830;49.000;12.074;2022-10-31T12:06:10;50.80;;;34.30;;
3627;SDS011;1830;49.000;12.074;2022-10-31T12:08:43;54.13;;;33.03;;
3627;SDS011;1830;49.000;12.074;2022-10-31T12:11:14;46.47;;;33.87;;
3627;SDS011;1830;49.000;12.074;2022-10-31T12:13:58;58.30;;;35.50;;
3627;SDS011;1830;49.000;12.074;2022-10-31T12:16:39;51.27;;;33.83;;
3627;SDS011;1830;49.000;12.074;2022-10-31T12:19:22;51.77;;;34.10;;
3627;SDS011;1830;49.000;12.074;2022-10-31T12:22:15;52.90;;;33.73;;
3627;SDS011;1830;49.000;12.074;2022-10-31T12:27:58;58.03;;;33.90;;
3627;SDS011;1830;49.000;12.074;2022-10-31T12:30:38;49.30;;;34.73;;
3627;SDS011;1830;49.000;12.074;2022-10-31T12:33:24;44.90;;;34.47;;
3627;SDS011;1830;49.000;12.074;2022-10-31T12:36:06;50.87;;;34.60;;
3627;SDS011;1830;49.000;12.074;2022-10-31T12:38:58;52.83;;;35.30;;
3627;SDS011;1830;49.000;12.074;2022-10-31T12:41:36;53.87;;;34.83;;
3627;SDS011;1830;49.000;12.074;2022-10-31T12:44:14;53.37;;;33.20;;
3627;SDS011;1830;49.000;12.074;2022-10-31T12:47:12;52.97;;;34.90;;
3627;SDS011;1830;49.000;12.074;2022-10-31T12:50:20;48.80;;;33.77;;
3627;SDS011;1830;49.000;12.074;2022-10-31T12:52:58;51.87;;;34.30;;
3627;SDS011;1830;49.000;12.074;2022-10-31T12:55:41;53.00;;;34.50;;
3627;SDS011;1830;49.000;12.074;2022-10-31T12:58:17;46.37;;;33.57;;
3627;SDS011;1830;49.000;12.074;2022-10-31T13:00:48;48.80;;;33.90;;
3627;SDS011;1830;49.000;12.074;2022-10-31T13:03:23;49.70;;;33.47;;
3627;SDS011;1830;49.000;12.074;2022-10-31T13:05:57;46.17;;;34.07;;
3627;SDS011;1830;49.000;12.074;2022-10-31T13:12:01;49.43;;;33.20;;
3627;SDS011;1830;49.000;12.074;2022-10-31T13:18:27;51.50;;;34.57;;
3627;SDS011;1830;49.000;12.074;2022-10-31T13:21:39;54.67;;;34.30;;
3627;SDS011;1830;49.000;12.074;2022-10-31T13:24:53;54.10;;;34.13;;
3627;SDS011;1830;49.000;12.074;2022-10-31T13:28:00;57.27;;;32.50;;
3627;SDS011;1830;49.000;12.074;2022-10-31T13:30:38;56.40;;;36.43;;
3627;SDS011;1830;49.000;12.074;2022-10-31T13:33:08;53.23;;;31.70;;
3627;SDS011;1830;49.000;12.074;2022-10-31T13:35:42;52.43;;;33.33;;
3627;SDS011;1830;49.000;12.074;2022-10-31T13:38:20;58.00;;;34.50;;
3627;SDS011;1830;49.000;12.074;2022-10-31T13:41:01;49.27;;;34.10;;
3627;SDS011;1830;49.000;12.074;2022-10-31T13:43:34;51.00;;;34.90;;
3627;SDS011;1830;49.000;12.074;2022-10-31T13:46:22;52.73;;;33.80;;
3627;SDS011;1830;49.000;12.074;2022-10-31T13:48:52;60.33;;;35.37;;
3627;SDS011;1830;49.000;12.074;2022-10-31T13:51:24;62.87;;;35.63;;
3627;SDS011;1830;49.000;12.074;2022-10-31T13:53:58;69.47;;;37.40;;
3627;SDS011;1830;49.000;12.074;2022-10-31T13:56:27;61.83;;;33.70;;
3627;SDS011;1830;49.000;12.074;2022-10-31T13:59:04;67.10;;;33.93;;
3627;SDS011;1830;49.000;12.074;2022-10-31T14:01:48;48.47;;;34.13;;
3627;SDS011;1830;49.000;12.074;2022-10-31T14:04:18;48.60;;;33.67;;
3627;SDS011;1830;49.000;12.074;2022-10-31T14:06:52;50.80;;;33.20;;
3627;SDS011;1830;49.000;12.074;2022-10-31T14:09:31;53.87;;;32.70;;
3627;SDS011;1830;49.000;12.074;2022-10-31T14:12:04;60.67;;;35.80;;
3627;SDS011;1830;49.000;12.074;2022-10-31T14:14:35;53.53;;;33.37;;
3627;SDS011;1830;49.000;12.074;2022-10-31T14:17:17;51.27;;;33.60;;
3627;SDS011;1830;49.000;12.074;2022-10-31T14:20:00;53.33;;;33.90;;
3627;SDS011;1830;49.000;12.074;2022-10-31T14:22:42;49.03;;;34.40;;
3627;SDS011;1830;49.000;12.074;2022-10-31T14:25:28;51.47;;;36.27;;
3627;SDS011;1830;49.000;12.074;2022-10-31T14:27:56;50.63;;;33.10;;
3627;SDS011;1830;49.000;12.074;2022-10-31T14:30:24;70.03;;;35.73;;
3627;SDS011;1830;49.000;12.074;2022-10-31T14:32:54;53.13;;;36.50;;
3627;SDS011;1830;49.000;12.074;2022-10-31T14:35:24;56.50;;;36.40;;
3627;SDS011;1830;49.000;12.074;2022-10-31T14:38:01;59.03;;;34.07;;
3627;SDS011;1830;49.000;12.074;2022-10-31T14:40:52;48.13;;;31.87;;
3627;SDS011;1830;49.000;12.074;2022-10-31T14:43:52;63.10;;;34.40;;
3627;SDS011;1830;49.000;12.074;2022-10-31T14:46:35;52.70;;;34.10;;
3627;SDS011;1830;49.000;12.074;2022-10-31T14:49:44;68.30;;;36.30;;
3627;SDS011;1830;49.000;12.074;2022-10-31T14:55:24;50.97;;;29.90;;
3627;SDS011;1830;49.000;12.074;2022-10-31T14:57:54;52.47;;;32.50;;
3627;SDS011;1830;49.000;12.074;2022-10-31T15:00:24;53.37;;;35.83;;
3627;SDS011;1830;49.000;12.074;2022-10-31T15:02:55;61.37;;;37.03;;
3627;SDS011;1830;49.000;12.074;2022-10-31T15:05:29;48.67;;;34.30;;
3627;SDS011;1830;49.000;12.074;2022-10-31T15:07:57;57.27;;;33.60;;
3627;SDS011;1830;49.000;12.074;2022-10-31T15:10:27;56.70;;;32.03;;
3627;SDS011;1830;49.000;12.074;2022-10-31T15:13:08;49.37;;;33.20;;
3627;SDS011;1830;49.000;12.074;2022-10-31T15:15:36;50.90;;;31.87;;
3627;SDS011;1830;49.000;12.074;2022-10-31T15:18:04;49.73;;;32.73;;
3627;SDS011;1830;49.000;12.074;2022-10-31T15:20:33;59.37;;;33.10;;
3627;SDS011;1830;49.000;12.074;2022-10-31T15:23:09;59.10;;;34.13;;
3627;SDS011;1830;49.000;12.074;2022-10-31T15:25:41;60.13;;;35.40;;
3627;SDS011;1830;49.000;12.074;2022-10-31T15:28:15;62.23;;;32.93;;
3627;SDS011;1830;49.000;12.074;2022-10-31T15:30:51;52.07;;;31.07;;
3627;SDS011;1830;49.000;12.074;2022-10-31T15:33:20;53.07;;;31.47;;
3627;SDS011;1830;49.000;12.074;2022-10-31T15:35:55;48.70;;;33.33;;
3627;SDS011;1830;49.000;12.074;2022-10-31T15:38:36;51.37;;;32.07;;
3627;SDS011;1830;49.000;12.074;2022-10-31T15:41:24;51.37;;;32.00;;
3627;SDS011;1830;49.000;12.074;2022-10-31T15:48:12;66.10;;;38.67;;
3627;SDS011;1830;49.000;12.074;2022-10-31T15:51:34;59.43;;;37.63;;
3627;SDS011;1830;49.000;12.074;2022-10-31T15:54:30;58.40;;;36.10;;
3627;SDS011;1830;49.000;12.074;2022-10-31T15:57:15;66.83;;;40.20;;
3627;SDS011;1830;49.000;12.074;2022-10-31T16:10:36;68.90;;;39.10;;
3627;SDS011;1830;49.000;12.074;2022-10-31T16:13:29;59.77;;;39.70;;
3627;SDS011;1830;49.000;12.074;2022-10-31T16:19:47;70.40;;;41.73;;
3627;SDS011;1830;49.000;12.074;2022-10-31T16:22:19;66.87;;;40.73;;
3627;SDS011;1830;49.000;12.074;2022-10-31T16:24:49;63.50;;;42.17;;
3627;SDS011;1830;49.000;12.074;2022-10-31T16:27:19;78.00;;;39.97;;
3627;SDS011;1830;49.000;12.074;2022-10-31T16:29:50;56.83;;;39.27;;
3627;SDS011;1830;49.000;12.074;2022-10-31T16:32:24;58.80;;;40.67;;
3627;SDS011;1830;49.000;12.074;2022-10-31T16:35:01;76.83;;;40.83;;
3627;SDS011;1830;49.000;12.074;2022-10-31T16:37:43;64.43;;;41.37;;
3627;SDS011;1830;49.000;12.074;2022-10-31T16:40:10;77.27;;;47.00;;
3627;SDS011;1830;49.000;12.074;2022-10-31T16:42:38;72.93;;;44.93;;
3627;SDS011;1830;49.000;12.074;2022-10-31T16:45:06;69.57;;;45.20;;
3627;SDS011;1830;49.000;12.074;2022-10-31T16:47:36;77.47;;;44.00;;
3627;SDS011;1830;49.000;12.074;2022-10-31T16:50:12;74.83;;;44.53;;
3627;SDS011;1830;49.000;12.074;2022-10-31T16:52:46;70.63;;;44.97;;
3627;SDS011;1830;49.000;12.074;2022-10-31T16:55:13;67.07;;;42.17;;
3627;SDS011;1830;49.000;12.074;2022-10-31T16:57:41;76.70;;;43.83;;
3627;SDS011;1830;49.000;12.074;2022-10-31T17:00:14;76.83;;;53.43;;
3627;SDS011;1830;49.000;12.074;2022-10-31T17:02:54;84.90;;;50.03;;